createdAt,value
2023-01-09T00:00:23.177Z,99610.94
2023-01-09T00:03:13.736Z,99605.19
2023-01-09T00:05:42.887Z,99607.72
2023-01-09T00:08:11.682Z,99610.59
2023-01-09T00:10:40.884Z,99624.44
2023-01-09T00:13:12.769Z,99615.59
2023-01-09T00:15:42.936Z,99626.66
2023-01-09T00:18:13.216Z,99627.72
2023-01-09T00:20:42.549Z,99619.69
2023-01-09T00:23:11.303Z,99630.09
2023-01-09T00:25:42.463Z,99634.53
2023-01-09T00:28:11.625Z,99638.75
2023-01-09T00:30:40.715Z,99641.28
2023-01-09T00:33:10.534Z,99635.97
2023-01-09T00:35:41.109Z,99638.31
2023-01-09T00:38:10.004Z,99626.06
2023-01-09T00:40:39.343Z,99621.09
2023-01-09T00:43:08.313Z,99610.75
2023-01-09T00:45:37.576Z,99611.09
2023-01-09T00:48:13.710Z,99635.03
2023-01-09T00:50:44.928Z,99639.34
2023-01-09T00:53:20.143Z,99628.28
2023-01-09T00:55:49.217Z,99615.50
2023-01-09T00:58:18.626Z,99613.44
2023-01-09T01:00:47.819Z,99596.97
2023-01-09T01:03:16.949Z,99595.09
2023-01-09T01:06:04.678Z,99596.97
2023-01-09T01:08:33.483Z,99593.16
2023-01-09T01:11:09.249Z,99574.66
2023-01-09T01:13:39.031Z,99574.13
2023-01-09T01:16:12.044Z,99567.94
2023-01-09T01:18:42.462Z,99567.63
2023-01-09T01:21:15.687Z,99566.94
2023-01-09T01:23:45.580Z,99557.03
2023-01-09T01:26:17.544Z,99566.88
2023-01-09T01:28:46.608Z,99562.25
2023-01-09T01:31:20.225Z,99558.75
2023-01-09T01:33:49.027Z,99556.22
2023-01-09T01:36:19.512Z,99553.94
2023-01-09T01:38:48.524Z,99560.22
2023-01-09T01:41:29.529Z,99562.06
2023-01-09T01:44:00.996Z,99559.06
2023-01-09T01:46:31.024Z,99553.97
2023-01-09T01:49:07.872Z,99550.69
2023-01-09T01:51:46.055Z,99546.16
2023-01-09T01:54:25.713Z,99553.22
2023-01-09T01:56:59.717Z,99561.22
2023-01-09T01:59:35.262Z,99572.97
2023-01-09T02:02:05.918Z,99565.38
2023-01-09T02:04:40.415Z,99557.06
2023-01-09T02:07:12.441Z,99569.63
2023-01-09T02:09:44.608Z,99562.56
2023-01-09T02:12:23.575Z,99571.84
2023-01-09T02:14:58.888Z,99563.69
2023-01-09T02:18:07.529Z,99550.69
2023-01-09T02:20:59.354Z,99550.03
2023-01-09T02:24:31.210Z,99551.13
2023-01-09T02:27:24.597Z,99545.19
2023-01-09T02:30:27.504Z,99544.28
2023-01-09T02:33:25.986Z,99531.22
2023-01-09T02:36:19.064Z,99520.69
2023-01-09T02:39:00.915Z,99527.22
2023-01-09T02:41:39.366Z,99528.91
2023-01-09T02:44:23.406Z,99532.94
2023-01-09T02:47:04.897Z,99537.06
2023-01-09T02:49:37.889Z,99522.00
2023-01-09T02:52:28.070Z,99536.88
2023-01-09T02:55:11.815Z,99527.50
2023-01-09T02:57:58.044Z,99523.19
2023-01-09T03:00:42.144Z,99516.81
2023-01-09T03:03:23.327Z,99522.38
2023-01-09T03:06:00.498Z,99509.44
2023-01-09T03:08:40.190Z,99505.94
2023-01-09T03:11:11.942Z,99506.59
2023-01-09T03:13:47.979Z,99498.53
2023-01-09T03:16:22.744Z,99499.41
2023-01-09T03:18:55.942Z,99501.63
2023-01-09T03:21:25.561Z,99502.53
2023-01-09T03:23:58.377Z,99501.41
2023-01-09T03:26:29.497Z,99493.00
2023-01-09T03:28:59.510Z,99481.78
2023-01-09T03:31:28.662Z,99476.22
2023-01-09T03:33:58.849Z,99474.28
2023-01-09T03:36:28.189Z,99465.66
2023-01-09T03:38:56.977Z,99473.47
2023-01-09T03:41:26.054Z,99458.09
2023-01-09T03:43:54.901Z,99454.22
2023-01-09T03:46:23.962Z,99450.56
2023-01-09T03:48:52.734Z,99452.50
2023-01-09T03:51:23.136Z,99447.00
2023-01-09T03:53:51.901Z,99444.25
2023-01-09T03:56:21.221Z,99443.06
2023-01-09T03:58:50.257Z,99436.53
2023-01-09T04:01:19.411Z,99442.09
2023-01-09T04:03:48.440Z,99443.56
2023-01-09T04:06:17.567Z,99440.91
2023-01-09T04:08:47.715Z,99433.59
2023-01-09T04:11:18.082Z,99440.16
2023-01-09T04:13:46.896Z,99440.97
2023-01-09T04:16:16.108Z,99431.84
2023-01-09T04:18:44.961Z,99433.69
2023-01-09T04:21:14.018Z,99439.47
2023-01-09T04:23:42.788Z,99447.19
2023-01-09T04:26:13.276Z,99435.09
2023-01-09T04:28:42.042Z,99443.81
2023-01-09T04:31:11.258Z,99437.78
2023-01-09T04:33:40.099Z,99438.91
2023-01-09T04:36:10.345Z,99444.41
2023-01-09T04:38:39.163Z,99436.78
2023-01-09T04:41:08.211Z,99436.78
2023-01-09T04:43:38.761Z,99446.09
2023-01-09T04:46:08.022Z,99444.00
2023-01-09T04:48:36.803Z,99439.66
2023-01-09T04:51:06.064Z,99433.50
2023-01-09T04:53:34.863Z,99433.34
2023-01-09T04:56:03.936Z,99427.06
2023-01-09T04:58:32.756Z,99419.34
2023-01-09T05:01:03.375Z,99415.28
2023-01-09T05:03:32.287Z,99416.91
2023-01-09T05:06:01.346Z,99418.00
2023-01-09T05:08:30.165Z,99405.81
2023-01-09T05:10:59.600Z,99414.88
2023-01-09T05:13:28.951Z,99415.13
2023-01-09T05:15:58.146Z,99407.66
2023-01-09T05:18:28.402Z,99408.22
2023-01-09T05:20:57.467Z,99405.88
2023-01-09T05:23:26.285Z,99403.28
2023-01-09T05:25:55.292Z,99396.91
2023-01-09T05:28:24.087Z,99395.22
2023-01-09T05:30:53.281Z,99390.44
2023-01-09T05:33:22.058Z,99378.41
2023-01-09T05:35:52.515Z,99392.28
2023-01-09T05:38:21.445Z,99387.91
2023-01-09T05:40:50.478Z,99386.72
2023-01-09T05:43:19.223Z,99370.44
2023-01-09T05:45:48.425Z,99375.66
2023-01-09T05:48:17.237Z,99380.34
2023-01-09T05:50:46.345Z,99379.38
2023-01-09T05:53:16.512Z,99382.13
2023-01-09T05:55:45.652Z,99380.34
2023-01-09T05:58:14.433Z,99380.44
2023-01-09T06:00:43.616Z,99383.22
2023-01-09T06:03:12.542Z,99370.97
2023-01-09T06:05:41.644Z,99371.06
2023-01-09T06:08:10.414Z,99367.44
2023-01-09T06:10:40.830Z,99365.00
2023-01-09T06:13:09.709Z,99365.94
2023-01-09T06:15:38.838Z,99366.94
2023-01-09T06:18:07.766Z,99360.75
2023-01-09T06:20:36.827Z,99365.25
2023-01-09T06:23:05.597Z,99361.31
2023-01-09T06:25:34.883Z,99363.66
2023-01-09T06:28:05.420Z,99374.00
2023-01-09T06:30:35.060Z,99380.28
2023-01-09T06:33:03.865Z,99377.50
2023-01-09T06:35:32.942Z,99374.91
2023-01-09T06:38:03.493Z,99377.06
2023-01-09T06:40:32.630Z,99358.84
2023-01-09T06:43:01.512Z,99367.84
2023-01-09T06:45:31.973Z,99367.19
2023-01-09T06:48:00.801Z,99361.22
2023-01-09T06:50:29.901Z,99360.50
2023-01-09T06:52:58.664Z,99363.09
2023-01-09T06:55:27.806Z,99352.22
2023-01-09T06:57:56.644Z,99349.00
2023-01-09T07:00:27.263Z,99342.31
2023-01-09T07:02:57.527Z,99339.28
2023-01-09T07:05:26.735Z,99337.59
2023-01-09T07:07:56.982Z,99343.34
2023-01-09T07:10:26.292Z,99340.31
2023-01-09T07:12:55.163Z,99338.63
2023-01-09T07:15:24.474Z,99345.38
2023-01-09T07:17:53.474Z,99350.81
2023-01-09T07:20:23.914Z,99351.41
2023-01-09T07:22:54.012Z,99340.91
2023-01-09T07:25:23.295Z,99345.38
2023-01-09T07:27:52.072Z,99349.84
2023-01-09T07:30:21.381Z,99347.09
2023-01-09T07:32:50.171Z,99340.34
2023-01-09T07:35:19.545Z,99347.44
2023-01-09T07:37:49.712Z,99343.53
2023-01-09T07:40:19.244Z,99341.41
2023-01-09T07:42:48.051Z,99342.81
2023-01-09T07:45:17.279Z,99326.63
2023-01-09T07:47:46.167Z,99330.16
2023-01-09T07:50:15.336Z,99333.03
2023-01-09T07:52:46.532Z,99318.28
2023-01-09T07:55:17.710Z,99321.94
2023-01-09T07:57:50.991Z,99322.47
2023-01-09T08:00:22.106Z,99319.59
2023-01-09T08:02:54.050Z,99319.94
2023-01-09T08:05:24.033Z,99326.47
2023-01-09T08:07:53.259Z,99314.28
2023-01-09T08:10:23.722Z,99310.66
2023-01-09T08:12:52.823Z,99320.63
2023-01-09T08:15:21.627Z,99320.16
2023-01-09T08:17:50.766Z,99318.19
2023-01-09T08:20:19.874Z,99317.38
2023-01-09T08:22:53.632Z,99306.56
2023-01-09T08:25:24.391Z,99305.75
2023-01-09T08:27:53.775Z,99307.06
2023-01-09T08:30:22.914Z,99312.25
2023-01-09T08:32:54.099Z,99301.44
2023-01-09T08:35:23.395Z,99308.06
2023-01-09T08:37:52.509Z,99304.41
2023-01-09T08:40:22.991Z,99298.47
2023-01-09T08:43:09.655Z,99299.22
2023-01-09T08:45:55.673Z,99292.78
2023-01-09T08:48:24.847Z,99291.84
2023-01-09T08:50:54.414Z,99312.47
2023-01-09T08:53:23.533Z,99308.97
2023-01-09T08:55:53.677Z,99311.56
2023-01-09T08:58:22.802Z,99313.63
2023-01-09T09:00:51.595Z,99304.06
2023-01-09T09:03:21.773Z,99297.66
2023-01-09T09:05:50.568Z,99291.13
2023-01-09T09:08:20.320Z,99296.16
2023-01-09T09:10:49.298Z,99295.75
2023-01-09T09:13:19.807Z,99295.19
2023-01-09T09:15:48.709Z,99271.63
2023-01-09T09:18:17.856Z,99274.16
2023-01-09T09:20:46.735Z,99266.69
2023-01-09T09:23:16.233Z,99272.63
2023-01-09T09:25:45.065Z,99279.41
2023-01-09T09:28:14.148Z,99276.59
2023-01-09T09:30:44.368Z,99276.44
2023-01-09T09:33:13.435Z,99289.06
2023-01-09T09:35:42.251Z,99292.09
2023-01-09T09:38:13.438Z,99293.94
2023-01-09T09:41:03.448Z,99282.84
2023-01-09T09:44:14.275Z,99272.31
2023-01-09T09:46:56.056Z,99274.81
2023-01-09T09:49:33.926Z,99274.59
2023-01-09T09:52:20.512Z,99267.13
2023-01-09T09:54:51.724Z,99251.34
2023-01-09T09:57:35.634Z,99254.34
2023-01-09T10:00:06.940Z,99253.19
2023-01-09T10:02:51.777Z,99249.28
2023-01-09T10:05:28.387Z,99251.38
2023-01-09T10:08:15.432Z,99247.19
2023-01-09T10:10:53.555Z,99250.38
2023-01-09T10:13:43.817Z,99256.22
2023-01-09T10:16:32.900Z,99252.59
2023-01-09T10:19:20.604Z,99256.03
2023-01-09T10:22:03.144Z,99250.47
2023-01-09T10:24:55.424Z,99247.31
2023-01-09T10:27:53.354Z,99239.00
2023-01-09T10:30:33.996Z,99246.63
2023-01-09T10:33:21.461Z,99243.47
2023-01-09T10:36:40.457Z,99235.56
2023-01-09T10:39:22.263Z,99225.41
2023-01-09T10:42:01.528Z,99217.41
2023-01-09T10:44:37.600Z,99206.63
2023-01-09T10:47:16.719Z,99215.19
2023-01-09T10:49:49.069Z,99204.66
2023-01-09T10:52:20.864Z,99209.28
2023-01-09T10:54:57.570Z,99204.28
2023-01-09T10:57:46.834Z,99200.19
2023-01-09T11:00:23.173Z,99199.00
2023-01-09T11:02:54.799Z,99194.44
2023-01-09T11:05:28.026Z,99181.31
2023-01-09T11:08:05.658Z,99183.63
2023-01-09T11:10:51.035Z,99177.91
2023-01-09T11:13:23.646Z,99181.47
2023-01-09T11:16:16.990Z,99181.69
2023-01-09T11:18:53.889Z,99172.03
2023-01-09T11:21:35.993Z,99173.56
2023-01-09T11:24:31.600Z,99177.66
2023-01-09T11:27:25.304Z,99165.16
2023-01-09T11:30:24.016Z,99160.63
2023-01-09T11:32:53.556Z,99147.41
2023-01-09T11:35:33.755Z,99156.38
2023-01-09T11:38:09.560Z,99154.34
2023-01-09T11:40:50.497Z,99146.53
2023-01-09T11:43:34.720Z,99148.91
2023-01-09T11:46:07.044Z,99139.69
2023-01-09T11:48:54.686Z,99142.06
2023-01-09T11:51:26.465Z,99134.56
2023-01-09T11:54:22.503Z,99132.47
2023-01-09T11:56:53.469Z,99126.31
2023-01-09T11:59:28.361Z,99121.72
2023-01-09T12:02:47.636Z,99118.41
2023-01-09T12:05:33.009Z,99121.63
2023-01-09T12:08:29.739Z,99107.78
2023-01-09T12:11:28.952Z,99111.94
2023-01-09T12:14:30.428Z,99111.09
2023-01-09T12:17:36.625Z,99116.22
2023-01-09T12:20:34.401Z,99108.13
2023-01-09T12:23:25.020Z,99109.03
2023-01-09T12:26:16.278Z,99096.97
2023-01-09T12:29:19.858Z,99094.44
2023-01-09T12:32:17.795Z,99090.81
2023-01-09T12:35:03.421Z,99098.94
2023-01-09T12:38:05.375Z,99106.75
2023-01-09T12:41:09.394Z,99111.69
2023-01-09T12:43:55.354Z,99110.09
2023-01-09T12:46:27.456Z,99117.50
2023-01-09T12:49:28.284Z,99112.06
2023-01-09T12:52:07.150Z,99107.41
2023-01-09T12:54:46.958Z,99102.53
2023-01-09T12:57:24.518Z,99095.44
2023-01-09T12:59:59.791Z,99087.53
2023-01-09T13:02:38.810Z,99075.41
2023-01-09T13:05:17.586Z,99070.72
2023-01-09T13:07:53.656Z,99080.31
2023-01-09T13:10:30.930Z,99073.44
2023-01-09T13:13:07.146Z,99076.06
2023-01-09T13:15:42.532Z,99073.84
2023-01-09T13:18:22.401Z,99082.09
2023-01-09T13:20:56.112Z,99077.28
2023-01-09T13:23:36.902Z,99076.47
2023-01-09T13:26:09.906Z,99068.13
2023-01-09T13:28:47.121Z,99065.19
2023-01-09T13:32:08.663Z,99064.69
2023-01-09T13:34:41.070Z,99054.25
2023-01-09T13:37:25.669Z,99056.75
2023-01-09T13:40:00.795Z,99051.72
2023-01-09T13:42:38.803Z,99051.19
2023-01-09T13:45:24.588Z,99045.69
2023-01-09T13:48:30.721Z,99051.94
2023-01-09T13:51:51.688Z,99049.41
2023-01-09T13:57:31.043Z,99050.84
2023-01-09T14:00:50.851Z,99057.97
2023-01-09T14:03:26.339Z,99056.06
2023-01-09T14:06:22.550Z,99047.22
2023-01-09T14:09:13.274Z,99050.00
2023-01-09T14:11:42.755Z,99047.06
2023-01-09T14:14:33.226Z,99043.31
2023-01-09T14:17:03.821Z,99043.44
2023-01-09T14:19:38.230Z,99033.91
2023-01-09T14:22:18.519Z,99036.31
2023-01-09T14:24:52.648Z,99048.09
2023-01-09T14:28:11.597Z,99047.47
2023-01-09T14:31:11.433Z,99045.72
2023-01-09T14:33:40.768Z,99044.16
2023-01-09T14:36:21.886Z,99050.59
2023-01-09T14:38:54.361Z,99047.47
2023-01-09T14:41:49.619Z,99066.16
2023-01-09T14:44:30.166Z,99062.91
2023-01-09T14:47:11.771Z,99061.25
2023-01-09T14:49:46.756Z,99066.16
2023-01-09T14:52:24.883Z,99072.84
2023-01-09T14:55:00.578Z,99078.91
2023-01-09T14:57:32.524Z,99073.38
2023-01-09T15:00:04.857Z,99076.25
2023-01-09T15:02:38.348Z,99072.19
2023-01-09T15:05:12.354Z,99076.91
2023-01-09T15:07:49.659Z,99075.88
2023-01-09T15:10:23.510Z,99072.69
2023-01-09T15:12:56.043Z,99073.88
2023-01-09T15:15:27.704Z,99076.47
2023-01-09T15:18:01.513Z,99079.72
2023-01-09T15:20:34.407Z,99083.03
2023-01-09T15:23:04.351Z,99080.44
2023-01-09T15:25:39.690Z,99081.25
2023-01-09T15:28:30.914Z,99077.00
2023-01-09T15:31:10.844Z,99084.59
2023-01-09T15:33:44.631Z,99089.16
2023-01-09T15:36:20.843Z,99096.91
2023-01-09T15:38:52.436Z,99101.06
2023-01-09T15:41:45.641Z,99108.88
2023-01-09T15:44:20.030Z,99109.28
2023-01-09T15:46:51.875Z,99105.25
2023-01-09T15:49:22.388Z,99100.41
2023-01-09T15:51:52.585Z,99104.06
2023-01-09T15:54:30.212Z,99106.78
2023-01-09T15:57:37.747Z,99097.56
2023-01-09T16:00:42.044Z,99101.63
2023-01-09T16:03:23.124Z,99102.78
2023-01-09T16:06:05.637Z,99113.88
2023-01-09T16:08:38.906Z,99104.56
2023-01-09T16:11:11.118Z,99105.06
2023-01-09T16:13:46.088Z,99104.13
2023-01-09T16:16:26.071Z,99092.88
2023-01-09T16:18:57.920Z,99110.19
2023-01-09T16:21:37.455Z,99117.38
2023-01-09T16:24:27.102Z,99106.66
2023-01-09T16:27:30.583Z,99102.13
2023-01-09T16:30:01.358Z,99118.44
2023-01-09T16:32:33.555Z,99110.19
2023-01-09T16:35:06.512Z,99120.84
2023-01-09T16:37:37.538Z,99122.31
2023-01-09T16:40:27.507Z,99132.78
2023-01-09T16:43:00.952Z,99130.78
2023-01-09T16:45:34.222Z,99130.00
2023-01-09T16:48:11.027Z,99136.41
2023-01-09T16:50:40.283Z,99140.44
2023-01-09T16:53:17.456Z,99137.00
2023-01-09T16:55:47.499Z,99135.81
2023-01-09T16:58:24.533Z,99138.78
2023-01-09T17:00:54.179Z,99134.28
2023-01-09T17:03:23.016Z,99135.22
2023-01-09T17:05:59.295Z,99141.06
2023-01-09T17:08:32.724Z,99142.41
2023-01-09T17:11:02.106Z,99154.19
2023-01-09T17:13:31.269Z,99148.84
2023-01-09T17:16:01.169Z,99154.19
2023-01-09T17:18:30.023Z,99150.88
2023-01-09T17:20:59.779Z,99153.81
2023-01-09T17:23:30.559Z,99163.19
2023-01-09T17:26:18.530Z,99156.09
2023-01-09T17:28:51.535Z,99163.81
2023-01-09T17:31:21.148Z,99164.66
2023-01-09T17:33:50.263Z,99167.97
2023-01-09T17:36:28.037Z,99176.44
2023-01-09T17:38:58.653Z,99166.59
2023-01-09T17:41:31.218Z,99164.84
2023-01-09T17:44:01.308Z,99156.91
2023-01-09T17:46:33.680Z,99160.44
2023-01-09T17:49:04.236Z,99167.78
2023-01-09T17:51:33.861Z,99174.16
2023-01-09T17:54:04.224Z,99178.00
2023-01-09T17:56:38.422Z,99179.25
2023-01-09T17:59:08.226Z,99178.22
2023-01-09T18:01:37.606Z,99175.94
2023-01-09T18:04:06.757Z,99179.88
2023-01-09T18:06:37.590Z,99181.38
2023-01-09T18:09:09.937Z,99191.41
2023-01-09T18:11:41.364Z,99186.78
2023-01-09T18:14:13.412Z,99175.41
2023-01-09T18:16:44.236Z,99184.06
2023-01-09T18:19:13.380Z,99186.47
2023-01-09T18:21:42.559Z,99182.88
2023-01-09T18:24:12.737Z,99203.91
2023-01-09T18:26:41.889Z,99195.84
2023-01-09T18:29:11.507Z,99204.41
2023-01-09T18:31:40.936Z,99204.41
2023-01-09T18:34:11.068Z,99208.72
2023-01-09T18:36:40.236Z,99206.09
2023-01-09T18:39:09.280Z,99212.16
2023-01-09T18:41:39.796Z,99204.66
2023-01-09T18:44:08.700Z,99210.22
2023-01-09T18:46:40.899Z,99202.81
2023-01-09T18:49:11.245Z,99210.25
2023-01-09T18:51:40.359Z,99208.59
2023-01-09T18:54:09.202Z,99224.06
2023-01-09T18:56:39.762Z,99227.63
2023-01-09T18:59:10.455Z,99226.06
2023-01-09T19:01:39.713Z,99225.22
2023-01-09T19:04:08.744Z,99225.22
2023-01-09T19:06:38.051Z,99236.28
2023-01-09T19:09:07.168Z,99239.75
2023-01-09T19:11:36.387Z,99230.13
2023-01-09T19:14:06.633Z,99239.84
2023-01-09T19:16:35.876Z,99246.84
2023-01-09T19:19:06.533Z,99244.13
2023-01-09T19:21:36.055Z,99244.97
2023-01-09T19:24:05.558Z,99255.09
2023-01-09T19:26:34.662Z,99245.59
2023-01-09T19:29:03.487Z,99258.47
2023-01-09T19:31:34.489Z,99260.09
2023-01-09T19:34:03.493Z,99255.84
2023-01-09T19:36:32.656Z,99252.97
2023-01-09T19:39:03.848Z,99263.56
2023-01-09T19:41:33.577Z,99267.53
2023-01-09T19:44:02.772Z,99266.50
2023-01-09T19:46:35.529Z,99274.41
2023-01-09T19:49:06.186Z,99267.31
2023-01-09T19:51:35.715Z,99277.47
2023-01-09T19:56:35.648Z,99278.00
2023-01-09T19:59:06.833Z,99275.28
2023-01-09T20:01:43.585Z,99278.97
2023-01-09T20:04:15.118Z,99285.03
2023-01-09T20:06:47.315Z,99290.97
2023-01-09T20:09:21.532Z,99297.28
2023-01-09T20:11:50.817Z,99298.94
2023-01-09T20:14:20.967Z,99293.09
2023-01-09T20:16:54.075Z,99301.66
2023-01-09T20:19:23.377Z,99297.78
2023-01-09T20:21:52.518Z,99311.38
2023-01-09T20:24:21.343Z,99313.47
2023-01-09T20:26:51.125Z,99306.59
2023-01-09T20:29:20.508Z,99308.34
2023-01-09T20:31:51.173Z,99307.72
2023-01-09T20:34:20.089Z,99314.84
2023-01-09T20:36:49.446Z,99325.31
2023-01-09T20:39:18.441Z,99331.25
2023-01-09T20:41:47.532Z,99339.00
2023-01-09T20:44:16.733Z,99335.75
2023-01-09T20:46:48.300Z,99320.91
2023-01-09T20:49:19.388Z,99336.94
2023-01-09T20:51:50.927Z,99349.88
2023-01-09T20:54:22.421Z,99357.19
2023-01-09T20:56:52.279Z,99356.25
2023-01-09T20:59:22.301Z,99360.13
2023-01-09T21:01:51.948Z,99367.13
2023-01-09T21:04:22.275Z,99366.28
2023-01-09T21:06:51.372Z,99367.78
2023-01-09T21:09:20.820Z,99368.69
2023-01-09T21:11:50.021Z,99366.91
2023-01-09T21:14:20.124Z,99370.38
2023-01-09T21:16:54.592Z,99390.00
2023-01-09T21:19:25.715Z,99391.69
2023-01-09T21:21:54.820Z,99396.91
2023-01-09T21:24:23.809Z,99404.72
2023-01-09T21:26:52.935Z,99418.44
2023-01-09T21:29:21.741Z,99415.41
2023-01-09T21:31:51.130Z,99408.94
2023-01-09T21:34:20.911Z,99422.72
2023-01-09T21:36:52.105Z,99431.50
2023-01-09T21:39:22.510Z,99429.59
2023-01-09T21:42:08.886Z,99438.50
2023-01-09T21:44:55.827Z,99435.88
2023-01-09T21:47:24.986Z,99438.69
2023-01-09T21:49:53.765Z,99447.84
2023-01-09T21:52:25.697Z,99448.47
2023-01-09T21:54:54.498Z,99444.34
2023-01-09T21:57:23.763Z,99452.28
2023-01-09T21:59:52.561Z,99455.22
2023-01-09T22:02:21.690Z,99471.63
2023-01-09T22:04:51.367Z,99476.22
2023-01-09T22:07:20.511Z,99478.44
2023-01-09T22:09:50.805Z,99477.53
2023-01-09T22:12:20.007Z,99484.53
2023-01-09T22:14:48.936Z,99491.84
2023-01-09T22:17:18.013Z,99486.88
2023-01-09T22:19:46.898Z,99496.50
2023-01-09T22:22:16.032Z,99493.25
2023-01-09T22:24:44.918Z,99489.25
2023-01-09T22:27:15.401Z,99481.41
2023-01-09T22:29:44.189Z,99483.28
2023-01-09T22:32:13.403Z,99484.22
2023-01-09T22:34:42.177Z,99489.88
2023-01-09T22:37:11.336Z,99491.38
2023-01-09T22:39:40.155Z,99483.09
2023-01-09T22:42:09.215Z,99492.81
2023-01-09T22:44:39.356Z,99488.84
2023-01-09T22:47:08.441Z,99494.63
2023-01-09T22:49:51.844Z,99493.63
2023-01-09T22:52:22.429Z,99491.72
2023-01-09T22:54:51.283Z,99491.50
2023-01-09T22:57:20.358Z,99490.09
2023-01-09T22:59:50.498Z,99491.28
2023-01-09T23:02:21.058Z,99489.59
2023-01-09T23:04:49.954Z,99496.34
2023-01-09T23:07:19.020Z,99503.28
2023-01-09T23:09:48.090Z,99498.03
2023-01-09T23:12:17.451Z,99499.06
2023-01-09T23:14:46.355Z,99510.16
2023-01-09T23:17:17.051Z,99501.75
2023-01-09T23:19:45.950Z,99506.91
2023-01-09T23:22:15.043Z,99514.38
2023-01-09T23:24:43.833Z,99519.38
2023-01-09T23:27:13.043Z,99516.34
2023-01-09T23:29:41.879Z,99513.63
2023-01-09T23:32:12.126Z,99522.63
2023-01-09T23:34:42.455Z,99520.69
2023-01-09T23:37:11.631Z,99521.88
2023-01-09T23:39:40.436Z,99511.38
2023-01-09T23:42:29.461Z,99522.91
2023-01-09T23:44:58.321Z,99533.09
2023-01-09T23:47:27.512Z,99537.66
2023-01-09T23:49:57.706Z,99537.78
2023-01-09T23:52:26.789Z,99548.03
2023-01-09T23:54:56.693Z,99545.84
2023-01-09T23:57:26.506Z,99547.03
2023-01-09T23:59:55.281Z,99547.16
